createdAt,value
2022-07-29T00:01:58.823Z,16.74
2022-07-29T00:07:01.450Z,17.06
2022-07-29T00:12:04.576Z,19.43
2022-07-29T00:17:07.172Z,18.23
2022-07-29T00:22:09.961Z,16.58
2022-07-29T00:27:12.712Z,18.64
2022-07-29T00:32:15.509Z,18.44
2022-07-29T00:37:18.231Z,16.42
2022-07-29T00:42:21.041Z,16.90
2022-07-29T00:47:23.758Z,18.99
2022-07-29T00:52:26.644Z,17.07
2022-07-29T00:57:29.460Z,15.47
2022-07-29T01:02:32.387Z,16.23
2022-07-29T01:07:37.898Z,18.88
2022-07-29T01:12:41.989Z,17.82
2022-07-29T01:18:08.081Z,15.97
2022-07-29T01:23:29.192Z,17.43
2022-07-29T01:28:58.449Z,19.05
2022-07-29T01:34:06.536Z,16.76
2022-07-29T01:39:19.849Z,16.84
2022-07-29T01:44:55.323Z,18.67
2022-07-29T01:50:01.074Z,16.43
2022-07-29T01:55:15.199Z,16.64
2022-07-29T02:00:18.649Z,18.63
2022-07-29T02:05:24.383Z,16.63
2022-07-29T02:10:30.946Z,15.18
2022-07-29T02:15:35.396Z,17.53
2022-07-29T02:20:40.227Z,18.61
2022-07-29T02:25:44.072Z,16.51
2022-07-29T02:30:51.160Z,16.61
2022-07-29T02:35:55.997Z,18.95
2022-07-29T02:41:01.148Z,17.42
2022-07-29T02:46:12.728Z,15.40
2022-07-29T02:51:44.520Z,17.17
2022-07-29T02:56:50.591Z,17.68
2022-07-29T03:01:55.376Z,15.44
2022-07-29T03:07:01.064Z,15.73
2022-07-29T03:12:05.267Z,18.28
2022-07-29T03:17:08.501Z,17.34
2022-07-29T03:22:11.477Z,15.42
2022-07-29T03:27:14.299Z,15.35
2022-07-29T03:32:17.201Z,18.11
2022-07-29T03:37:27.123Z,17.84
2022-07-29T03:42:34.432Z,15.64
2022-07-29T03:47:50.584Z,14.41
2022-07-29T03:52:54.604Z,15.69
2022-07-29T03:57:58.239Z,18.52
2022-07-29T04:03:01.683Z,17.77
2022-07-29T04:08:04.710Z,15.90
2022-07-29T04:13:07.448Z,16.51
2022-07-29T04:18:10.226Z,18.97
2022-07-29T04:23:12.981Z,17.41
2022-07-29T04:28:15.748Z,15.79
2022-07-29T04:33:19.862Z,16.58
2022-07-29T04:38:23.267Z,19.39
2022-07-29T04:43:25.987Z,18.60
2022-07-29T04:48:30.172Z,16.80
2022-07-29T04:53:32.785Z,17.44
2022-07-29T04:58:36.322Z,20.07
2022-07-29T05:03:39.057Z,19.01
2022-07-29T05:08:42.143Z,17.49
2022-07-29T05:13:45.356Z,18.19
2022-07-29T05:18:48.983Z,20.83
2022-07-29T05:23:51.715Z,19.72
2022-07-29T05:28:55.592Z,18.48
2022-07-29T05:33:58.344Z,20.68
2022-07-29T05:39:01.057Z,21.66
2022-07-29T05:44:03.780Z,20.02
2022-07-29T05:49:07.655Z,20.67
2022-07-29T05:54:10.455Z,22.19
2022-07-29T05:59:15.571Z,20.70
2022-07-29T06:04:21.430Z,19.67
2022-07-29T06:09:24.850Z,20.62
2022-07-29T06:14:27.872Z,22.39
2022-07-29T06:19:30.643Z,21.12
2022-07-29T06:24:33.536Z,20.35
2022-07-29T06:29:36.455Z,21.80
2022-07-29T06:34:39.280Z,23.13
2022-07-29T06:39:43.426Z,21.89
2022-07-29T06:44:46.142Z,21.16
2022-07-29T06:49:48.984Z,20.71
2022-07-29T06:54:51.752Z,20.50
2022-07-29T06:59:54.448Z,20.35
2022-07-29T07:04:57.400Z,20.18
2022-07-29T07:10:00.123Z,20.10
2022-07-29T07:15:02.976Z,20.06
2022-07-29T07:20:07.431Z,20.13
2022-07-29T07:25:12.941Z,20.21
2022-07-29T07:30:16.137Z,20.35
2022-07-29T07:35:18.920Z,20.48
2022-07-29T07:40:21.694Z,20.52
2022-07-29T07:45:25.235Z,20.59
2022-07-29T07:50:28.012Z,20.73
2022-07-29T07:55:53.223Z,20.83
2022-07-29T08:00:53.807Z,20.95
2022-07-29T08:05:56.877Z,21.04
2022-07-29T08:11:03.123Z,21.24
2022-07-29T08:16:16.426Z,21.47
2022-07-29T08:21:19.611Z,21.62
2022-07-29T08:26:23.688Z,21.69
2022-07-29T08:31:26.617Z,21.79
2022-07-29T08:36:29.518Z,21.98
2022-07-29T08:41:32.498Z,22.11
2022-07-29T08:46:39.390Z,22.25
2022-07-29T08:51:49.676Z,22.32
2022-07-29T08:56:54.794Z,22.37
2022-07-29T09:02:01.291Z,22.33
2022-07-29T09:07:06.976Z,22.40
2022-07-29T09:12:13.183Z,22.39
2022-07-29T09:17:50.277Z,22.05
2022-07-29T09:22:54.568Z,21.63
2022-07-29T09:28:07.083Z,21.42
2022-07-29T09:33:09.658Z,21.45
2022-07-29T09:38:12.951Z,21.45
2022-07-29T09:43:15.902Z,21.71
2022-07-29T09:48:21.535Z,22.15
2022-07-29T09:53:36.090Z,22.58
2022-07-29T09:58:39.665Z,22.97
2022-07-29T10:03:53.220Z,23.24
2022-07-29T10:08:56.166Z,23.48
2022-07-29T10:13:59.572Z,23.70
2022-07-29T10:19:02.730Z,23.72
2022-07-29T10:24:07.490Z,23.90
2022-07-29T10:29:17.901Z,24.22
2022-07-29T10:34:37.937Z,24.54
2022-07-29T10:39:49.695Z,24.77
2022-07-29T10:44:54.443Z,24.74
2022-07-29T10:50:03.805Z,24.82
2022-07-29T10:55:07.933Z,24.96
2022-07-29T11:05:54.619Z,25.09
2022-07-29T11:11:22.429Z,25.36
2022-07-29T11:17:06.073Z,25.49
2022-07-29T11:22:11.481Z,25.69
2022-07-29T11:27:18.241Z,25.91
2022-07-29T11:38:37.999Z,25.74
2022-07-29T11:43:52.970Z,25.20
2022-07-29T11:48:56.806Z,24.76
2022-07-29T11:54:05.172Z,24.51
2022-07-29T11:59:10.489Z,24.60
2022-07-29T12:04:18.143Z,24.75
2022-07-29T12:09:24.949Z,24.93
2022-07-29T12:14:29.710Z,25.12
2022-07-29T12:19:44.418Z,25.45
2022-07-29T12:24:47.502Z,25.81
2022-07-29T12:29:58.328Z,25.96
2022-07-29T12:35:05.576Z,26.09
2022-07-29T12:40:11.801Z,26.31
2022-07-29T12:45:17.582Z,26.71
2022-07-29T12:50:25.915Z,27.03
2022-07-29T12:55:43.662Z,27.30
2022-07-29T13:00:46.488Z,27.47
2022-07-29T13:05:51.523Z,27.50
2022-07-29T13:10:54.376Z,27.28
2022-07-29T13:16:08.830Z,26.89
2022-07-29T13:21:13.580Z,26.55
2022-07-29T13:26:20.657Z,26.44
2022-07-29T13:31:23.588Z,26.46
2022-07-29T13:36:26.305Z,26.53
2022-07-29T13:41:29.536Z,26.45
2022-07-29T13:46:32.274Z,26.56
2022-07-29T13:51:35.034Z,26.74
2022-07-29T13:56:37.791Z,27.04
2022-07-29T14:01:43.222Z,27.38
2022-07-29T14:06:46.011Z,27.79
2022-07-29T14:11:50.689Z,27.87
2022-07-29T14:16:53.440Z,27.71
2022-07-29T14:21:56.927Z,27.33
2022-07-29T14:27:01.111Z,27.20
2022-07-29T14:32:05.318Z,27.17
2022-07-29T14:37:08.185Z,27.30
2022-07-29T14:42:12.758Z,27.84
2022-07-29T14:47:15.796Z,28.51
2022-07-29T14:52:18.487Z,29.23
2022-07-29T14:57:21.185Z,29.58
2022-07-29T15:02:40.065Z,29.82
2022-07-29T15:07:46.583Z,29.88
2022-07-29T15:12:49.383Z,29.88
2022-07-29T15:17:52.099Z,30.28
2022-07-29T15:22:56.567Z,30.48
2022-07-29T15:28:03.294Z,30.21
2022-07-29T15:33:05.982Z,29.57
2022-07-29T15:38:09.010Z,28.85
2022-07-29T15:43:11.811Z,28.48
2022-07-29T15:48:15.024Z,28.30
2022-07-29T15:53:21.281Z,28.42
2022-07-29T15:58:24.138Z,28.83
2022-07-29T16:03:26.942Z,29.82
2022-07-29T16:08:29.781Z,30.82
2022-07-29T16:13:32.552Z,31.67
2022-07-29T16:18:35.267Z,32.11
2022-07-29T16:23:39.634Z,32.63
2022-07-29T16:28:42.867Z,33.35
2022-07-29T16:33:54.902Z,33.86
2022-07-29T16:38:58.677Z,33.22
2022-07-29T16:44:01.424Z,31.32
2022-07-29T16:49:04.595Z,30.51
2022-07-29T16:54:11.580Z,30.29
2022-07-29T16:59:14.361Z,29.77
2022-07-29T17:04:17.176Z,29.28
2022-07-29T17:09:21.149Z,29.44
2022-07-29T17:14:29.415Z,30.14
2022-07-29T17:19:35.326Z,29.96
2022-07-29T17:24:38.974Z,30.05
2022-07-29T17:29:44.138Z,30.72
2022-07-29T17:34:46.909Z,31.03
2022-07-29T17:39:50.945Z,31.30
2022-07-29T17:44:53.658Z,31.26
2022-07-29T17:49:56.354Z,30.01
2022-07-29T17:54:59.113Z,28.99
2022-07-29T18:00:01.941Z,28.26
2022-07-29T18:05:05.340Z,26.99
2022-07-29T18:10:08.472Z,25.72
2022-07-29T18:15:11.247Z,24.66
2022-07-29T18:20:14.063Z,23.81
2022-07-29T18:25:17.098Z,23.11
2022-07-29T18:30:20.391Z,22.49
2022-07-29T18:35:23.131Z,21.93
2022-07-29T18:40:25.977Z,21.45
2022-07-29T18:45:29.053Z,20.97
2022-07-29T18:50:32.441Z,20.54
2022-07-29T18:55:35.310Z,20.14
2022-07-29T19:00:38.133Z,19.72
2022-07-29T19:05:41.422Z,19.31
2022-07-29T19:10:44.222Z,18.94
2022-07-29T19:15:47.095Z,18.57
2022-07-29T19:20:49.921Z,18.22
2022-07-29T19:25:53.374Z,17.89
2022-07-29T19:30:57.121Z,17.60
2022-07-29T19:36:00.140Z,17.35
2022-07-29T19:41:02.850Z,17.12
2022-07-29T19:46:05.651Z,16.91
2022-07-29T19:51:08.371Z,16.77
2022-07-29T19:56:11.291Z,16.65
2022-07-29T20:01:14.110Z,16.54
2022-07-29T20:06:17.625Z,16.45
2022-07-29T20:11:20.368Z,16.35
2022-07-29T20:16:23.154Z,16.23
2022-07-29T20:21:28.700Z,16.11
2022-07-29T20:26:31.469Z,15.97
2022-07-29T20:31:34.338Z,15.82
2022-07-29T20:36:37.654Z,17.09
2022-07-29T20:41:40.783Z,20.37
2022-07-29T20:46:43.645Z,20.60
2022-07-29T20:51:46.438Z,18.67
2022-07-29T20:56:49.198Z,17.52
2022-07-29T21:01:51.982Z,16.82
2022-07-29T21:06:54.710Z,16.29
2022-07-29T21:11:59.478Z,15.86
2022-07-29T21:17:04.728Z,15.50
2022-07-29T21:22:07.592Z,16.79
2022-07-29T21:27:29.130Z,20.06
2022-07-29T21:32:31.926Z,20.17
2022-07-29T21:37:34.786Z,18.20
2022-07-29T21:42:37.503Z,16.96
2022-07-29T21:47:40.361Z,16.12
2022-07-29T21:52:43.107Z,15.49
2022-07-29T21:57:45.799Z,16.63
2022-07-29T22:02:48.663Z,19.64
2022-07-29T22:07:54.698Z,19.56
2022-07-29T22:13:01.843Z,17.53
2022-07-29T22:18:04.668Z,16.32
2022-07-29T22:23:07.391Z,15.53
2022-07-29T22:28:10.134Z,16.48
2022-07-29T22:33:17.349Z,19.53
2022-07-29T22:38:20.906Z,19.07
2022-07-29T22:43:23.647Z,17.19
2022-07-29T22:48:26.601Z,16.02
2022-07-29T22:53:29.355Z,15.19
2022-07-29T22:58:32.116Z,16.14
2022-07-29T23:03:34.974Z,19.09
2022-07-29T23:08:37.739Z,19.21
2022-07-29T23:13:40.485Z,17.11
2022-07-29T23:18:43.226Z,15.78
2022-07-29T23:23:45.946Z,14.93
2022-07-29T23:28:48.684Z,15.95
2022-07-29T23:33:51.434Z,19.03
2022-07-29T23:38:55.413Z,18.38
2022-07-29T23:43:58.978Z,16.58
2022-07-29T23:49:01.804Z,15.55
2022-07-29T23:54:04.744Z,16.40
2022-07-29T23:59:07.546Z,19.21
